createdAt,value
2023-05-21T00:00:12.959Z,12.32
2023-05-21T00:02:43.299Z,12.23
2023-05-21T00:05:13.751Z,11.70
2023-05-21T00:07:41.680Z,12.13
2023-05-21T00:10:09.246Z,12.38
2023-05-21T00:12:36.185Z,12.98
2023-05-21T00:15:03.379Z,12.05
2023-05-21T00:17:32.692Z,12.43
2023-05-21T00:20:00.259Z,12.25
2023-05-21T00:22:27.198Z,12.48
2023-05-21T00:24:54.019Z,11.77
2023-05-21T00:27:20.958Z,11.68
2023-05-21T00:29:48.105Z,12.95
2023-05-21T00:32:15.018Z,11.88
2023-05-21T00:34:42.496Z,12.15
2023-05-21T00:37:10.138Z,11.38
2023-05-21T00:39:37.178Z,11.48
2023-05-21T00:42:04.373Z,12.18
2023-05-21T00:44:34.418Z,12.30
2023-05-21T00:47:02.930Z,12.55
2023-05-21T00:49:30.833Z,11.57
2023-05-21T00:52:01.513Z,11.55
2023-05-21T00:54:29.581Z,12.38
2023-05-21T00:56:58.338Z,12.07
2023-05-21T00:59:25.843Z,12.57
2023-05-21T01:01:56.940Z,12.45
2023-05-21T01:04:24.751Z,13.48
2023-05-21T01:06:53.628Z,12.60
2023-05-21T01:09:21.339Z,13.40
2023-05-21T01:11:50.660Z,12.45
2023-05-21T01:14:19.043Z,12.95
2023-05-21T01:16:48.529Z,12.73
2023-05-21T01:19:18.508Z,12.93
2023-05-21T01:22:04.437Z,12.60
2023-05-21T01:24:33.234Z,12.00
2023-05-21T01:27:03.785Z,13.25
2023-05-21T01:29:30.681Z,12.18
2023-05-21T01:32:27.935Z,11.98
2023-05-21T01:35:04.455Z,12.43
2023-05-21T01:37:45.584Z,12.13
2023-05-21T01:40:26.128Z,12.88
2023-05-21T01:42:53.459Z,12.43
2023-05-21T01:45:22.653Z,11.88
2023-05-21T01:47:53.399Z,11.60
2023-05-21T01:50:22.092Z,11.82
2023-05-21T01:52:54.631Z,11.65
2023-05-21T01:55:25.063Z,11.82
2023-05-21T01:57:53.890Z,12.73
2023-05-21T02:00:22.715Z,12.65
2023-05-21T02:02:50.182Z,11.02
2023-05-21T02:05:17.528Z,11.63
2023-05-21T02:07:46.164Z,11.95
2023-05-21T02:10:13.184Z,11.85
2023-05-21T02:12:40.455Z,11.65
2023-05-21T02:15:09.960Z,11.90
2023-05-21T02:17:38.901Z,12.43
2023-05-21T02:20:13.874Z,11.45
2023-05-21T02:22:45.549Z,11.75
2023-05-21T02:25:14.498Z,11.32
2023-05-21T02:27:42.928Z,12.50
2023-05-21T02:30:12.139Z,11.35
2023-05-21T02:32:42.984Z,12.10
2023-05-21T02:35:12.060Z,11.88
2023-05-21T02:37:44.189Z,10.88
2023-05-21T02:40:12.413Z,12.10
2023-05-21T02:42:41.523Z,11.10
2023-05-21T02:45:12.918Z,12.02
2023-05-21T02:47:42.458Z,11.25
2023-05-21T02:50:10.048Z,10.93
2023-05-21T02:52:44.326Z,11.77
2023-05-21T02:55:11.394Z,10.88
2023-05-21T02:57:38.243Z,11.80
2023-05-21T03:00:09.025Z,11.27
2023-05-21T03:02:37.270Z,12.02
2023-05-21T03:05:05.303Z,11.30
2023-05-21T03:07:34.104Z,9.98
2023-05-21T03:10:01.728Z,12.40
2023-05-21T03:12:34.080Z,12.02
2023-05-21T03:15:01.534Z,11.77
2023-05-21T03:17:34.478Z,11.57
2023-05-21T03:20:01.721Z,11.02
2023-05-21T03:22:29.895Z,11.43
2023-05-21T03:24:58.336Z,11.70
2023-05-21T03:27:26.013Z,11.65
2023-05-21T03:29:55.923Z,12.15
2023-05-21T03:32:23.864Z,11.95
2023-05-21T03:34:51.408Z,11.15
2023-05-21T03:37:19.149Z,11.57
2023-05-21T03:39:46.068Z,11.50
2023-05-21T03:42:14.288Z,11.40
2023-05-21T03:44:46.607Z,12.27
2023-05-21T03:47:46.322Z,11.68
2023-05-21T03:50:13.500Z,12.30
2023-05-21T03:52:40.797Z,11.30
2023-05-21T03:55:08.250Z,10.55
2023-05-21T03:57:35.977Z,11.43
2023-05-21T04:00:02.954Z,12.00
2023-05-21T04:02:33.444Z,10.88
2023-05-21T04:05:00.697Z,11.50
2023-05-21T04:07:30.071Z,11.18
2023-05-21T04:09:57.041Z,10.73
2023-05-21T04:12:24.076Z,11.30
2023-05-21T04:14:51.680Z,10.98
2023-05-21T04:17:19.336Z,11.05
2023-05-21T04:19:46.650Z,12.38
2023-05-21T04:22:14.033Z,10.82
2023-05-21T04:24:40.999Z,10.77
2023-05-21T04:27:16.798Z,11.57
2023-05-21T04:29:44.367Z,9.85
2023-05-21T04:32:15.237Z,10.70
2023-05-21T04:34:43.052Z,11.05
2023-05-21T04:37:10.351Z,11.23
2023-05-21T04:39:37.443Z,10.82
2023-05-21T04:42:04.994Z,10.43
2023-05-21T04:44:31.962Z,9.73
2023-05-21T04:47:02.289Z,10.57
2023-05-21T04:49:30.137Z,9.43
2023-05-21T04:51:57.208Z,9.90
2023-05-21T04:54:24.156Z,9.52
2023-05-21T04:56:51.052Z,9.65
2023-05-21T04:59:18.794Z,9.50
2023-05-21T05:01:47.582Z,9.77
2023-05-21T05:04:14.432Z,9.75
2023-05-21T05:06:41.333Z,8.85
2023-05-21T05:09:08.775Z,8.52
2023-05-21T05:11:36.043Z,9.35
2023-05-21T05:14:04.247Z,9.40
2023-05-21T05:16:31.334Z,8.73
2023-05-21T05:18:58.482Z,8.68
2023-05-21T05:21:26.187Z,8.93
2023-05-21T05:23:53.541Z,9.25
2023-05-21T05:26:24.587Z,9.00
2023-05-21T05:28:51.683Z,9.90
2023-05-21T05:31:19.119Z,8.98
2023-05-21T05:33:47.445Z,9.25
2023-05-21T05:36:14.603Z,9.05
2023-05-21T05:38:41.653Z,8.52
2023-05-21T05:41:08.620Z,8.13
2023-05-21T05:43:35.627Z,9.48
2023-05-21T05:46:02.576Z,8.55
2023-05-21T05:48:29.535Z,8.38
2023-05-21T05:50:59.452Z,8.23
2023-05-21T05:53:26.870Z,8.63
2023-05-21T05:55:54.526Z,8.20
2023-05-21T05:58:21.536Z,7.60
2023-05-21T06:00:58.167Z,8.23
2023-05-21T06:03:26.911Z,8.10
2023-05-21T06:05:54.414Z,8.15
2023-05-21T06:08:21.659Z,8.38
2023-05-21T06:10:48.473Z,7.25
2023-05-21T06:13:16.383Z,8.13
2023-05-21T06:15:43.527Z,8.30
2023-05-21T06:18:11.917Z,8.50
2023-05-21T06:20:39.061Z,8.55
2023-05-21T06:23:07.460Z,7.43
2023-05-21T06:25:34.882Z,7.95
2023-05-21T06:28:02.100Z,7.95
2023-05-21T06:30:30.739Z,8.25
2023-05-21T06:32:59.640Z,8.32
2023-05-21T06:35:26.782Z,8.35
2023-05-21T06:37:53.645Z,7.53
2023-05-21T06:40:22.105Z,7.97
2023-05-21T06:42:52.033Z,7.65
2023-05-21T06:45:37.460Z,8.38
2023-05-21T06:48:17.590Z,7.47
2023-05-21T06:50:44.881Z,8.25
2023-05-21T06:53:13.976Z,8.35
2023-05-21T06:55:41.029Z,7.75
2023-05-21T06:58:15.892Z,7.75
2023-05-21T07:00:42.751Z,7.43
2023-05-21T07:03:10.353Z,7.60
2023-05-21T07:05:37.679Z,7.75
2023-05-21T07:08:05.822Z,7.70
2023-05-21T07:10:32.789Z,7.32
2023-05-21T07:12:59.719Z,7.30
2023-05-21T07:15:27.236Z,7.30
2023-05-21T07:17:54.428Z,6.95
2023-05-21T07:20:21.702Z,7.03
2023-05-21T07:22:51.874Z,7.65
2023-05-21T07:25:19.889Z,6.28
2023-05-21T07:27:47.833Z,6.38
2023-05-21T07:30:15.841Z,6.85
2023-05-21T07:32:42.899Z,6.97
2023-05-21T07:35:09.978Z,6.63
2023-05-21T07:37:37.086Z,7.70
2023-05-21T07:40:06.403Z,6.07
2023-05-21T07:42:34.982Z,6.00
2023-05-21T07:45:02.874Z,6.53
2023-05-21T07:50:01.895Z,6.43
2023-05-21T07:52:31.551Z,5.65
2023-05-21T07:55:01.646Z,6.05
2023-05-21T07:57:32.021Z,6.03
2023-05-21T08:00:06.992Z,6.72
2023-05-21T08:02:43.081Z,5.63
2023-05-21T08:05:13.278Z,6.70
2023-05-21T08:07:40.863Z,6.32
2023-05-21T08:10:09.123Z,6.90
2023-05-21T08:12:36.140Z,6.82
2023-05-21T08:15:04.823Z,6.15
2023-05-21T08:17:37.168Z,6.43
2023-05-21T08:20:05.706Z,7.13
2023-05-21T08:22:34.647Z,6.90
2023-05-21T08:25:01.667Z,6.03
2023-05-21T08:27:30.592Z,6.30
2023-05-21T08:29:58.424Z,6.57
2023-05-21T08:32:26.447Z,5.90
2023-05-21T08:34:54.550Z,6.25
2023-05-21T08:37:51.978Z,6.55
2023-05-21T08:40:27.220Z,6.40
2023-05-21T08:42:54.472Z,6.20
2023-05-21T08:45:47.686Z,6.47
2023-05-21T08:48:17.851Z,6.20
2023-05-21T08:50:46.393Z,6.28
2023-05-21T08:53:36.139Z,6.25
2023-05-21T08:56:13.188Z,6.20
2023-05-21T08:58:48.918Z,6.28
2023-05-21T09:01:20.387Z,5.90
2023-05-21T09:04:01.775Z,6.22
2023-05-21T09:09:32.561Z,5.70
2023-05-21T09:11:59.674Z,6.15
2023-05-21T09:14:27.954Z,5.82
2023-05-21T09:17:01.614Z,6.57
2023-05-21T09:19:30.400Z,6.60
2023-05-21T09:22:03.794Z,6.40
2023-05-21T09:24:35.764Z,5.80
2023-05-21T09:27:06.917Z,6.40
2023-05-21T09:29:35.597Z,6.32
2023-05-21T09:32:08.002Z,6.05
2023-05-21T09:34:38.356Z,5.43
2023-05-21T09:37:16.465Z,6.82
2023-05-21T09:39:43.840Z,6.35
2023-05-21T09:42:10.951Z,5.70
2023-05-21T09:44:37.998Z,5.97
2023-05-21T09:47:05.629Z,6.45
2023-05-21T09:49:32.698Z,6.47
2023-05-21T09:52:00.329Z,6.75
2023-05-21T09:54:36.207Z,6.30
2023-05-21T09:57:03.274Z,6.63
2023-05-21T09:59:38.175Z,6.40
2023-05-21T10:02:19.879Z,6.18
2023-05-21T10:04:50.292Z,6.73
2023-05-21T10:07:27.785Z,6.53
2023-05-21T10:09:56.886Z,6.82
2023-05-21T10:12:27.817Z,6.90
2023-05-21T10:15:04.042Z,6.30
2023-05-21T10:17:35.478Z,6.88
2023-05-21T10:20:03.560Z,6.50
2023-05-21T10:22:32.429Z,6.22
2023-05-21T10:25:01.144Z,6.15
2023-05-21T10:27:32.345Z,6.85
2023-05-21T10:30:00.797Z,6.38
2023-05-21T10:32:28.562Z,6.05
2023-05-21T10:34:56.263Z,6.03
2023-05-21T10:37:27.708Z,5.88
2023-05-21T10:39:55.928Z,6.43
2023-05-21T10:43:01.859Z,6.15
2023-05-21T10:46:06.647Z,5.88
2023-05-21T10:49:11.036Z,6.03
2023-05-21T10:51:58.008Z,6.13
2023-05-21T10:55:00.920Z,5.82
2023-05-21T10:57:49.026Z,6.35
2023-05-21T11:00:18.201Z,5.70
2023-05-21T11:02:46.240Z,5.57
2023-05-21T11:05:13.271Z,5.60
2023-05-21T11:07:57.201Z,5.80
2023-05-21T11:10:32.264Z,5.75
2023-05-21T11:13:26.485Z,5.53
2023-05-21T11:16:23.449Z,5.35
2023-05-21T11:18:50.454Z,5.10
2023-05-21T11:21:19.034Z,5.70
2023-05-21T11:23:53.833Z,5.65
2023-05-21T11:26:23.439Z,5.88
2023-05-21T11:29:08.884Z,5.70
2023-05-21T11:31:40.104Z,5.63
2023-05-21T11:34:28.646Z,5.70
2023-05-21T11:37:32.341Z,5.57
2023-05-21T11:40:34.796Z,5.07
2023-05-21T11:43:05.145Z,5.63
2023-05-21T11:45:33.382Z,5.60
2023-05-21T11:48:01.727Z,5.80
2023-05-21T11:50:30.921Z,5.75
2023-05-21T11:53:02.047Z,5.97
2023-05-21T11:55:31.822Z,5.07
2023-05-21T11:57:59.605Z,4.85
2023-05-21T12:00:26.643Z,5.32
2023-05-21T12:02:55.940Z,5.50
2023-05-21T12:05:24.544Z,5.18
2023-05-21T12:07:51.553Z,5.25
2023-05-21T12:10:24.435Z,5.30
2023-05-21T12:12:56.181Z,5.18
2023-05-21T12:15:26.656Z,5.30
2023-05-21T12:17:55.070Z,5.70
2023-05-21T12:20:23.475Z,5.07
2023-05-21T12:22:50.741Z,5.57
2023-05-21T12:25:21.704Z,4.70
2023-05-21T12:27:58.409Z,5.45
2023-05-21T12:30:26.393Z,5.55
2023-05-21T12:32:53.453Z,5.53
2023-05-21T12:35:24.189Z,5.18
2023-05-21T12:37:52.746Z,5.40
2023-05-21T12:40:21.024Z,5.22
2023-05-21T12:42:48.193Z,5.25
2023-05-21T12:45:18.864Z,4.95
2023-05-21T12:47:50.528Z,6.00
2023-05-21T12:50:21.268Z,5.30
2023-05-21T12:52:50.962Z,5.22
2023-05-21T12:55:18.180Z,5.43
2023-05-21T12:57:45.733Z,5.57
2023-05-21T13:00:13.179Z,5.45
2023-05-21T13:02:42.010Z,4.97
2023-05-21T13:05:11.533Z,5.80
2023-05-21T13:07:40.080Z,5.35
2023-05-21T13:10:09.032Z,4.72
2023-05-21T13:12:36.125Z,5.35
2023-05-21T13:15:05.057Z,5.80
2023-05-21T13:17:38.582Z,5.22
2023-05-21T13:20:15.219Z,5.28
2023-05-21T13:22:51.232Z,5.82
2023-05-21T13:25:28.820Z,4.75
2023-05-21T13:27:56.788Z,5.45
2023-05-21T13:30:24.313Z,5.72
2023-05-21T13:32:52.200Z,6.15
2023-05-21T13:35:19.739Z,5.43
2023-05-21T13:37:46.677Z,5.10
2023-05-21T13:40:15.818Z,5.47
2023-05-21T13:42:48.817Z,4.80
2023-05-21T13:45:19.244Z,5.82
2023-05-21T13:47:47.330Z,5.35
2023-05-21T13:50:14.864Z,5.25
2023-05-21T13:52:42.299Z,5.20
2023-05-21T13:55:18.602Z,5.22
2023-05-21T13:57:50.646Z,5.22
2023-05-21T14:00:18.024Z,6.07
2023-05-21T14:02:48.576Z,5.57
2023-05-21T14:05:15.739Z,5.65
2023-05-21T14:07:43.040Z,4.60
2023-05-21T14:10:13.068Z,5.60
2023-05-21T14:12:52.838Z,5.10
2023-05-21T14:15:22.940Z,4.82
2023-05-21T14:18:19.940Z,5.05
2023-05-21T14:21:00.347Z,5.07
2023-05-21T14:23:42.997Z,5.32
2023-05-21T14:26:18.736Z,5.72
2023-05-21T14:29:02.365Z,6.03
2023-05-21T14:34:10.271Z,5.50
2023-05-21T14:36:40.198Z,5.38
2023-05-21T14:39:08.133Z,5.35
2023-05-21T14:41:44.879Z,5.53
2023-05-21T14:44:11.827Z,5.03
2023-05-21T14:46:39.768Z,5.68
2023-05-21T14:49:10.365Z,5.30
2023-05-21T14:51:40.739Z,5.10
2023-05-21T14:54:07.601Z,5.22
2023-05-21T14:56:39.960Z,4.90
2023-05-21T14:59:17.687Z,4.90
2023-05-21T15:01:48.854Z,5.15
2023-05-21T15:04:21.222Z,5.07
2023-05-21T15:06:56.720Z,5.03
2023-05-21T15:09:26.571Z,5.20
2023-05-21T15:12:19.166Z,5.03
2023-05-21T15:14:46.332Z,5.30
2023-05-21T15:17:14.791Z,5.00
2023-05-21T15:20:10.791Z,5.40
2023-05-21T15:22:43.380Z,5.13
2023-05-21T15:25:14.242Z,5.20
2023-05-21T15:27:45.372Z,5.55
2023-05-21T15:30:13.002Z,5.20
2023-05-21T15:32:48.910Z,5.10
2023-05-21T15:35:19.137Z,5.45
2023-05-21T15:37:46.620Z,5.53
2023-05-21T15:40:13.908Z,5.57
2023-05-21T15:42:40.961Z,5.00
2023-05-21T15:45:11.004Z,4.63
2023-05-21T15:47:42.870Z,5.03
2023-05-21T15:50:10.964Z,4.90
2023-05-21T15:52:38.087Z,4.80
2023-05-21T15:55:05.329Z,5.05
2023-05-21T15:57:33.297Z,4.57
2023-05-21T16:00:00.197Z,5.47
2023-05-21T16:02:28.095Z,5.25
2023-05-21T16:04:58.097Z,5.20
2023-05-21T16:07:27.428Z,5.57
2023-05-21T16:09:58.361Z,5.07
2023-05-21T16:12:28.155Z,5.57
2023-05-21T16:14:55.069Z,5.10
2023-05-21T16:17:22.840Z,5.30
2023-05-21T16:19:53.122Z,6.28
2023-05-21T16:22:31.186Z,5.03
2023-05-21T16:24:58.128Z,5.10
2023-05-21T16:27:28.666Z,5.43
2023-05-21T16:29:56.241Z,5.68
2023-05-21T16:32:24.929Z,5.10
2023-05-21T16:34:53.598Z,5.13
2023-05-21T16:37:22.398Z,5.43
2023-05-21T16:39:49.464Z,5.40
2023-05-21T16:42:16.300Z,6.13
2023-05-21T16:44:44.165Z,5.32
2023-05-21T16:47:13.956Z,5.18
2023-05-21T16:49:48.251Z,5.75
2023-05-21T16:52:23.971Z,5.53
2023-05-21T16:54:59.494Z,5.07
2023-05-21T16:57:35.272Z,4.95
2023-05-21T17:00:06.415Z,5.07
2023-05-21T17:02:36.585Z,5.43
2023-05-21T17:05:03.759Z,4.80
2023-05-21T17:07:33.954Z,4.68
2023-05-21T17:10:00.930Z,5.25
2023-05-21T17:12:30.486Z,5.45
2023-05-21T17:14:58.031Z,5.00
2023-05-21T17:17:24.993Z,5.15
2023-05-21T17:20:10.868Z,4.80
2023-05-21T17:22:39.599Z,4.93
2023-05-21T17:25:08.073Z,5.57
2023-05-21T17:27:35.219Z,5.38
2023-05-21T17:30:04.191Z,5.45
2023-05-21T17:32:33.697Z,5.60
2023-05-21T17:35:00.739Z,5.35
2023-05-21T17:37:28.644Z,5.65
2023-05-21T17:39:57.701Z,5.57
2023-05-21T17:42:24.867Z,4.80
2023-05-21T17:44:52.061Z,6.13
2023-05-21T17:47:28.257Z,6.60
2023-05-21T17:50:04.357Z,7.13
2023-05-21T17:52:31.416Z,6.65
2023-05-21T17:54:58.343Z,6.75
2023-05-21T17:57:25.259Z,7.15
2023-05-21T17:59:52.136Z,6.68
2023-05-21T18:02:18.988Z,7.40
2023-05-21T18:04:46.164Z,6.10
2023-05-21T18:07:13.015Z,5.38
2023-05-21T18:09:39.803Z,6.07
2023-05-21T18:12:07.886Z,6.53
2023-05-21T18:14:35.225Z,6.20
2023-05-21T18:17:02.283Z,7.03
2023-05-21T18:19:32.194Z,6.32
2023-05-21T18:21:59.014Z,6.38
2023-05-21T18:24:26.132Z,6.65
2023-05-21T18:26:54.027Z,5.85
2023-05-21T18:29:21.244Z,6.78
2023-05-21T18:31:48.239Z,5.97
2023-05-21T18:34:17.509Z,5.40
2023-05-21T18:36:44.747Z,6.60
2023-05-21T18:39:11.609Z,6.40
2023-05-21T18:41:39.877Z,5.80
2023-05-21T18:44:06.961Z,6.43
2023-05-21T18:46:34.321Z,6.95
2023-05-21T18:49:01.523Z,5.95
2023-05-21T18:51:28.599Z,6.53
2023-05-21T18:53:55.545Z,6.43
2023-05-21T18:56:22.651Z,6.75
2023-05-21T18:58:49.720Z,6.50
2023-05-21T19:01:18.177Z,6.63
2023-05-21T19:03:45.198Z,6.65
2023-05-21T19:06:12.154Z,6.90
2023-05-21T19:08:41.073Z,7.43
2023-05-21T19:11:08.797Z,7.32
2023-05-21T19:13:35.784Z,6.78
2023-05-21T19:16:02.826Z,7.43
2023-05-21T19:18:31.764Z,7.20
2023-05-21T19:21:00.322Z,7.05
2023-05-21T19:23:27.345Z,7.97
2023-05-21T19:25:54.451Z,7.50
2023-05-21T19:28:21.446Z,7.55
2023-05-21T19:30:48.359Z,7.28
2023-05-21T19:33:15.274Z,7.78
2023-05-21T19:35:43.366Z,7.47
2023-05-21T19:38:14.949Z,7.70
2023-05-21T19:40:41.840Z,8.38
2023-05-21T19:43:08.758Z,7.88
2023-05-21T19:45:35.792Z,7.38
2023-05-21T19:48:02.892Z,7.95
2023-05-21T19:50:29.829Z,7.47
2023-05-21T19:52:59.833Z,8.38
2023-05-21T19:55:28.486Z,7.20
2023-05-21T19:57:56.480Z,8.68
2023-05-21T20:00:23.424Z,7.55
2023-05-21T20:02:50.395Z,7.30
2023-05-21T20:05:18.627Z,7.85
2023-05-21T20:07:45.661Z,7.72
2023-05-21T20:10:12.494Z,7.15
2023-05-21T20:12:39.466Z,7.35
2023-05-21T20:15:07.104Z,8.40
2023-05-21T20:17:36.085Z,7.72
2023-05-21T20:20:06.201Z,7.15
2023-05-21T20:22:33.148Z,6.90
2023-05-21T20:25:01.780Z,7.13
2023-05-21T20:27:29.041Z,7.10
2023-05-21T20:29:56.146Z,7.22
2023-05-21T20:32:23.003Z,7.32
2023-05-21T20:35:02.207Z,7.10
2023-05-21T20:37:32.925Z,7.22
2023-05-21T20:40:00.099Z,7.18
2023-05-21T20:42:28.674Z,6.95
2023-05-21T20:44:58.906Z,7.60
2023-05-21T20:47:29.926Z,7.72
2023-05-21T20:49:59.081Z,6.68
2023-05-21T20:52:27.411Z,7.18
2023-05-21T20:54:59.727Z,6.65
2023-05-21T20:57:27.488Z,7.05
2023-05-21T20:59:54.811Z,6.85
2023-05-21T21:02:22.968Z,7.13
2023-05-21T21:04:50.908Z,9.00
2023-05-21T21:07:19.021Z,7.05
2023-05-21T21:09:46.789Z,6.90
2023-05-21T21:12:25.792Z,6.90
2023-05-21T21:14:53.588Z,7.55
2023-05-21T21:17:20.994Z,6.70
2023-05-21T21:19:48.145Z,7.05
2023-05-21T21:22:17.201Z,7.00
2023-05-21T21:24:44.578Z,6.20
2023-05-21T21:27:11.495Z,6.10
2023-05-21T21:29:39.836Z,6.20
2023-05-21T21:32:07.386Z,6.60
2023-05-21T21:34:34.241Z,6.32
2023-05-21T21:37:01.109Z,7.10
2023-05-21T21:39:28.026Z,6.40
2023-05-21T21:41:54.831Z,6.38
2023-05-21T21:44:21.702Z,6.65
2023-05-21T21:46:48.678Z,6.82
2023-05-21T21:49:17.464Z,6.63
2023-05-21T21:51:45.163Z,6.55
2023-05-21T21:54:12.478Z,6.82
2023-05-21T21:56:39.877Z,6.15
2023-05-21T21:59:06.776Z,7.50
2023-05-21T22:01:34.038Z,6.75
2023-05-21T22:04:01.072Z,7.25
2023-05-21T22:06:28.675Z,7.07
2023-05-21T22:08:55.807Z,6.72
2023-05-21T22:11:22.903Z,6.22
2023-05-21T22:13:49.823Z,6.13
2023-05-21T22:16:16.810Z,5.85
2023-05-21T22:18:43.769Z,6.22
2023-05-21T22:21:14.286Z,6.85
2023-05-21T22:23:41.539Z,6.65
2023-05-21T22:26:09.357Z,6.60
2023-05-21T22:28:36.356Z,6.38
2023-05-21T22:31:03.500Z,6.22
2023-05-21T22:33:30.602Z,6.32
2023-05-21T22:35:58.164Z,6.07
2023-05-21T22:38:25.925Z,6.30
2023-05-21T22:40:52.837Z,6.07
2023-05-21T22:43:19.856Z,6.07
2023-05-21T22:45:47.114Z,6.18
2023-05-21T22:48:14.464Z,5.65
2023-05-21T22:50:41.582Z,6.38
2023-05-21T22:53:08.691Z,5.97
2023-05-21T22:55:35.819Z,6.03
2023-05-21T22:58:03.071Z,5.93
2023-05-21T23:00:30.123Z,5.75
2023-05-21T23:02:57.220Z,5.80
2023-05-21T23:05:24.604Z,5.90
2023-05-21T23:07:52.646Z,6.13
2023-05-21T23:10:20.055Z,6.28
2023-05-21T23:12:47.889Z,6.35
2023-05-21T23:15:16.545Z,5.53
2023-05-21T23:17:43.935Z,5.68
2023-05-21T23:20:11.220Z,6.32
2023-05-21T23:22:38.194Z,5.97
2023-05-21T23:25:05.393Z,5.82
2023-05-21T23:27:33.470Z,5.25
2023-05-21T23:30:01.521Z,5.70
2023-05-21T23:32:32.953Z,6.40
2023-05-21T23:34:59.792Z,5.63
2023-05-21T23:37:26.681Z,5.25
2023-05-21T23:39:53.502Z,5.57
2023-05-21T23:42:20.698Z,5.22
2023-05-21T23:44:47.719Z,5.55
2023-05-21T23:47:14.751Z,5.63
2023-05-21T23:49:41.625Z,5.78
2023-05-21T23:52:08.932Z,5.45
2023-05-21T23:54:35.808Z,5.35
2023-05-21T23:57:02.657Z,6.57
2023-05-21T23:59:29.534Z,5.28
